Terminal Aerodrome Forecast
Issued by NWS

Home | Current Version | Previous Version | Graphics & Text | Print | Product List | Glossary On
Versions: 1 2 3 4 5 6 7 8 9 10 11 12 13 14 15 16 17
000
FTUS43 KMPX 250544
TAFAXN
TAF
KAXN 250544Z 2506/2606 04009KT 6SM BR SCT020 OVC100
      TEMPO 2506/2510 BKN020 OVC100
     FM251000 04007KT P6SM OVC020
     FM252100 23003KT P6SM BKN025=

USA.gov is the U.S. government's official web portal to all federal, state and local government web resources and services.